KBEA

Details ICAO KBEA
Name BEEVILLE MUNI
Region United States
Timezone America/Chicago (UTC-6.0)
Plans Departing 2
Arriving 2
Stats Elevation 268 ft / 82 m (AMSL)
Location 28.365475° -97.792406°
Runways 2
Magnetic Variation 3.885° E
Sunrise 2017-12-12 13:15:31 UTC / 2017-12-12 07:15:31 Local
Sunset 2017-12-12 23:37:24 UTC / 2017-12-12 17:37:24 Local
Advertisement - Login to hide

Runways

ID Width Length Bearing (true) Bearing (mag) Surface Threshold Offset Overrun Length
12 75 ft / 23 m 4,553 ft / 1,388 m 131.11° 127.22° Asphalt 0 ft / 0 m 0 ft / 0 m
18 60 ft / 18 m 2,538 ft / 774 m 189.08° 185.19° Grass 0 ft / 0 m 0 ft / 0 m
30 75 ft / 23 m 4,553 ft / 1,388 m 311.11° 307.22° Asphalt 0 ft / 0 m 0 ft / 0 m
36 60 ft / 18 m 2,538 ft / 774 m 9.08° 5.19° Grass 0 ft / 0 m 0 ft / 0 m

Map

Weather


0- 5 10 15 20 25 30 35+ Temperature / ° C

Clouds and Precipitation
Forecast for 2017-12-12 12:00 UTC. Updated an hour ago

Ground ~20,000 ft ~40,000 ft Winds

METAR

KBEA 121035Z AUTO 30007KT 10SM CLR 10/06 A3025 RMK AO2 T00980057

TAF

Not found

Frequencies

Unicom 122.80 MHz CTAF/UNICOM
Warning: Do not use this data for real-world aviation or navigation. No guarantee of current accuracy is given.